Time;durP1;ratioP1;P1;durP2;ratioP2;P2;SDS_P1;SDS_P2;PMS_P1;PMS_P2;Temp;Humidity;BMP_temperature;BMP_pressure;BME280_temperature;BME280_humidity;BME280_pressure;Samples;Min_cycle;Max_cycle;Signal;HPM_P1;HPM_P2
2022/11/27 00:01:28;;;;;;;9.87;4.33;;;3.90;99.90;;;;;;5079010;28;20225;-50
2022/11/27 00:03:54;;;;;;;11.37;3.87;;;3.80;99.90;;;;;;5060543;28;20582;-49
2022/11/27 00:06:23;;;;;;;9.37;3.90;;;3.90;99.90;;;;;;5078768;28;20194;-50
2022/11/27 00:08:49;;;;;;;10.83;2.90;;;3.90;99.90;;;;;;5078768;28;20694;-49
2022/11/27 00:11:18;;;;;;;9.47;3.87;;;3.90;99.90;;;;;;5078160;28;20175;-49
2022/11/27 00:13:44;;;;;;;9.37;3.47;;;3.90;99.90;;;;;;5078404;28;20183;-49
2022/11/27 00:16:10;;;;;;;13.30;3.50;;;3.90;99.90;;;;;;5077819;28;20231;-49
2022/11/27 00:18:36;;;;;;;7.13;3.97;;;3.90;99.90;;;;;;5078378;28;20259;-49
2022/11/27 00:21:12;;;;;;;10.37;3.47;;;4.00;99.90;;;;;;5078004;28;20191;-49
2022/11/27 00:23:38;;;;;;;8.33;3.10;;;4.00;99.90;;;;;;5077494;28;20224;-49
2022/11/27 00:26:05;;;;;;;8.90;3.17;;;4.00;99.90;;;;;;5078013;28;20175;-49
2022/11/27 00:28:30;;;;;;;13.90;3.37;;;4.00;99.90;;;;;;5076833;28;20553;-49
2022/11/27 00:31:01;;;;;;;10.53;3.00;;;4.00;99.90;;;;;;5077095;28;20183;-49
2022/11/27 00:33:27;;;;;;;6.70;2.87;;;4.00;99.90;;;;;;5077131;28;20184;-47
2022/11/27 00:35:52;;;;;;;5.73;2.53;;;4.00;99.90;;;;;;5076622;28;20215;-50
2022/11/27 00:38:19;;;;;;;11.07;3.13;;;4.10;99.90;;;;;;5076801;28;20198;-48
2022/11/27 00:40:45;;;;;;;9.43;2.80;;;4.10;99.90;;;;;;5076868;28;20207;-48
2022/11/27 00:43:11;;;;;;;10.63;2.50;;;4.10;99.90;;;;;;5076552;28;20172;-50
2022/11/27 00:45:36;;;;;;;12.13;3.10;;;4.10;99.90;;;;;;5076346;28;20198;-48
2022/11/27 00:48:02;;;;;;;14.57;2.90;;;4.20;99.90;;;;;;5075829;28;20521;-49
2022/11/27 00:50:30;;;;;;;14.17;2.77;;;4.10;99.90;;;;;;5076356;28;20620;-49
2022/11/27 00:52:59;;;;;;;9.87;2.70;;;4.10;99.90;;;;;;5076007;28;20547;-49
2022/11/27 00:55:25;;;;;;;12.33;3.10;;;4.20;99.90;;;;;;5075949;28;20210;-48
2022/11/27 00:57:50;;;;;;;13.37;3.10;;;4.20;99.90;;;;;;5076466;28;20179;-48
2022/11/27 01:00:16;;;;;;;9.73;2.70;;;4.20;99.90;;;;;;5076246;28;20187;-50
2022/11/27 01:02:42;;;;;;;8.97;2.90;;;4.20;99.90;;;;;;5076569;28;20270;-49
2022/11/27 01:05:08;;;;;;;9.33;2.87;;;4.20;99.90;;;;;;5075642;28;20226;-49
2022/11/27 01:07:34;;;;;;;8.07;3.17;;;4.20;99.90;;;;;;5075554;28;20183;-48
2022/11/27 01:09:59;;;;;;;10.63;2.93;;;4.20;99.90;;;;;;5075766;28;20537;-49
2022/11/27 01:12:25;;;;;;;8.20;2.70;;;4.20;99.90;;;;;;5075256;28;20180;-49
2022/11/27 01:14:50;;;;;;;12.20;3.03;;;4.20;99.90;;;;;;5074760;28;20611;-48
2022/11/27 01:17:16;;;;;;;10.73;3.00;;;4.30;99.90;;;;;;5075269;28;20196;-50
2022/11/27 01:19:41;;;;;;;9.47;2.67;;;4.30;99.90;;;;;;5074810;28;20218;-49
2022/11/27 01:22:07;;;;;;;5.90;2.10;;;4.30;99.90;;;;;;5056413;28;20191;-47
2022/11/27 01:24:33;;;;;;;15.40;3.00;;;4.30;99.90;;;;;;5074858;28;20220;-49
2022/11/27 01:26:58;;;;;;;16.10;2.83;;;4.30;99.90;;;;;;5075565;28;20266;-49
2022/11/27 01:29:24;;;;;;;10.20;2.93;;;4.30;99.90;;;;;;5074457;28;20205;-50
2022/11/27 01:31:49;;;;;;;8.80;2.93;;;4.30;99.90;;;;;;5075015;28;20182;-49
2022/11/27 01:34:17;;;;;;;9.30;2.87;;;4.30;99.90;;;;;;5074754;28;20274;-49
2022/11/27 01:36:43;;;;;;;10.60;2.53;;;4.30;99.90;;;;;;5074150;28;20187;-49
2022/11/27 01:39:15;;;;;;;10.80;2.90;;;4.30;99.90;;;;;;5073818;28;20309;-46
2022/11/27 01:41:40;;;;;;;6.77;2.80;;;4.30;99.90;;;;;;5073279;28;20164;-44
2022/11/27 01:44:24;;;;;;;10.03;3.00;;;4.30;99.90;;;;;;5073064;28;20183;-44
2022/11/27 01:47:02;;;;;;;11.87;3.50;;;4.30;99.90;;;;;;5073063;28;20176;-44
2022/11/27 01:49:35;;;;;;;8.73;3.07;;;4.30;99.90;;;;;;5072932;28;20199;-44
2022/11/27 01:52:04;;;;;;;8.70;2.30;;;4.30;99.90;;;;;;5072987;28;20172;-44
2022/11/27 01:54:42;;;;;;;13.33;3.30;;;4.30;99.90;;;;;;5073528;28;20203;-45
2022/11/27 01:57:19;;;;;;;13.10;3.33;;;4.20;99.90;;;;;;5079481;28;20181;-42
2022/11/27 01:59:48;;;;;;;10.63;2.73;;;4.30;99.90;;;;;;5077316;28;20752;-45
2022/11/27 02:02:13;;;;;;;11.03;2.80;;;4.30;99.90;;;;;;5059624;28;20183;-46
2022/11/27 02:04:39;;;;;;;10.70;2.50;;;4.30;99.90;;;;;;5077130;28;20667;-45
2022/11/27 02:07:05;;;;;;;13.27;3.33;;;4.20;99.90;;;;;;5077272;28;20184;-44
2022/11/27 02:09:31;;;;;;;6.63;3.23;;;4.20;99.90;;;;;;5076851;28;20230;-44
2022/11/27 02:12:24;;;;;;;7.57;2.80;;;4.20;99.90;;;;;;5076938;28;20644;-43
2022/11/27 02:15:12;;;;;;;12.87;3.53;;;4.20;99.90;;;;;;5077042;28;20291;-44
2022/11/27 02:17:48;;;;;;;12.53;3.67;;;4.20;99.90;;;;;;5076725;28;20225;-46
2022/11/27 02:20:47;;;;;;;9.33;3.63;;;4.10;99.90;;;;;;5076529;28;20179;-44
2022/11/27 02:23:30;;;;;;;11.60;3.63;;;4.20;99.90;;;;;;5058577;28;20211;-45
2022/11/27 02:26:10;;;;;;;9.93;3.90;;;4.10;99.90;;;;;;5076505;28;20172;-45
2022/11/27 02:29:07;;;;;;;12.90;4.27;;;4.20;99.90;;;;;;5076257;28;20207;-42
2022/11/27 02:31:54;;;;;;;11.17;3.50;;;4.20;99.90;;;;;;5076508;28;20547;-44
2022/11/27 02:34:34;;;;;;;10.20;3.63;;;4.10;99.90;;;;;;5076482;28;20230;-45
2022/11/27 02:37:05;;;;;;;11.63;4.20;;;4.20;99.90;;;;;;5076624;28;20172;-44
2022/11/27 02:40:02;;;;;;;10.13;4.13;;;4.20;99.90;;;;;;5076446;28;20559;-46
2022/11/27 02:42:32;;;;;;;9.07;4.63;;;4.30;99.90;;;;;;5072330;28;20218;-45
2022/11/27 02:45:05;;;;;;;11.73;4.53;;;4.30;99.90;;;;;;5076657;28;20222;-45
2022/11/27 02:47:32;;;;;;;10.80;4.50;;;4.30;99.90;;;;;;5076373;28;20180;-45
2022/11/27 02:49:59;;;;;;;10.70;4.83;;;4.30;99.90;;;;;;5076471;28;20256;-45
2022/11/27 02:52:27;;;;;;;14.57;5.53;;;4.30;99.90;;;;;;5076471;28;20636;-45
2022/11/27 02:54:56;;;;;;;12.20;5.50;;;4.40;99.90;;;;;;5076125;28;20203;-45
2022/11/27 02:57:24;;;;;;;9.63;4.07;;;4.40;99.90;;;;;;5076082;28;20644;-44
2022/11/27 02:59:54;;;;;;;8.80;4.27;;;4.40;99.90;;;;;;5075760;28;20202;-44
2022/11/27 03:02:25;;;;;;;11.23;4.73;;;4.40;99.90;;;;;;5076305;28;20325;-45
2022/11/27 03:04:54;;;;;;;12.70;5.53;;;4.50;99.90;;;;;;5075809;28;20245;-44
2022/11/27 03:07:56;;;;;;;13.33;4.83;;;4.50;99.90;;;;;;5075669;28;20221;-45
2022/11/27 03:10:44;;;;;;;11.27;3.73;;;4.50;99.90;;;;;;5075300;28;20250;-46
2022/11/27 03:13:10;;;;;;;10.90;4.70;;;4.50;99.90;;;;;;5075640;28;20543;-46
2022/11/27 03:15:49;;;;;;;7.67;4.30;;;4.50;99.90;;;;;;5076068;28;20666;-46
2022/11/27 03:18:37;;;;;;;10.17;4.50;;;4.50;99.90;;;;;;5075717;28;20619;-45
2022/11/27 03:21:28;;;;;;;13.73;4.40;;;4.50;99.90;;;;;;5075511;28;20165;-45
2022/11/27 03:23:55;;;;;;;14.27;5.10;;;4.50;99.90;;;;;;5074773;28;20187;-45
2022/11/27 03:26:21;;;;;;;11.20;4.07;;;4.50;99.90;;;;;;5075525;28;20200;-45
2022/11/27 03:28:49;;;;;;;9.23;5.47;;;4.50;99.90;;;;;;5075571;28;20204;-45
2022/11/27 03:31:15;;;;;;;11.17;5.87;;;4.50;99.90;;;;;;5075640;28;20194;-46
2022/11/27 03:33:41;;;;;;;12.20;5.23;;;4.60;99.90;;;;;;5075524;28;20187;-45
2022/11/27 03:36:15;;;;;;;9.47;3.53;;;4.60;99.90;;;;;;5075421;28;20556;-45
2022/11/27 03:38:44;;;;;;;7.63;3.43;;;4.60;99.90;;;;;;5075212;28;20209;-45
2022/11/27 03:41:29;;;;;;;17.20;5.97;;;4.60;99.90;;;;;;5075048;28;20660;-45
2022/11/27 03:44:10;;;;;;;16.47;5.73;;;4.60;99.90;;;;;;5075223;28;20163;-43
2022/11/27 03:46:58;;;;;;;4.80;2.83;;;4.60;99.90;;;;;;5075341;28;20172;-45
2022/11/27 03:49:49;;;;;;;15.13;4.93;;;4.60;99.90;;;;;;5074951;28;20248;-44
2022/11/27 03:52:26;;;;;;;12.63;5.90;;;4.60;99.90;;;;;;5075232;28;20165;-45
2022/11/27 03:55:08;;;;;;;12.57;5.50;;;4.60;99.90;;;;;;5056864;28;20196;-45
2022/11/27 03:57:52;;;;;;;7.40;4.13;;;4.60;99.90;;;;;;5075051;28;20175;-44
2022/11/27 04:00:18;;;;;;;11.83;5.77;;;4.70;99.90;;;;;;5077519;28;20552;-46
2022/11/27 04:02:48;;;;;;;11.60;5.03;;;4.70;99.90;;;;;;5087035;28;20248;-46
2022/11/27 04:05:14;;;;;;;11.80;5.27;;;4.70;99.90;;;;;;5075083;28;20178;-44
2022/11/27 04:07:40;;;;;;;10.27;5.60;;;4.70;99.90;;;;;;5074496;28;20179;-44
2022/11/27 04:10:07;;;;;;;18.77;5.50;;;4.70;99.90;;;;;;5074541;28;20685;-46
2022/11/27 04:12:32;;;;;;;12.17;5.20;;;4.70;99.90;;;;;;5074350;28;20183;-46
2022/11/27 04:14:58;;;;;;;8.83;5.50;;;4.70;99.90;;;;;;5074319;28;20566;-44
2022/11/27 04:17:23;;;;;;;13.57;4.77;;;4.70;99.90;;;;;;5074300;28;20176;-44
2022/11/27 04:19:49;;;;;;;14.90;6.00;;;4.70;99.90;;;;;;5074482;28;20223;-46
2022/11/27 04:22:15;;;;;;;9.53;4.67;;;4.70;99.90;;;;;;5073503;28;20686;-45
2022/11/27 04:24:40;;;;;;;12.77;5.80;;;4.80;99.90;;;;;;5074493;28;20584;-44
2022/11/27 04:27:06;;;;;;;11.23;4.33;;;4.80;99.90;;;;;;5074197;28;20209;-46
2022/11/27 04:29:33;;;;;;;12.10;5.93;;;4.80;99.90;;;;;;5074206;28;20200;-46
2022/11/27 04:31:58;;;;;;;10.03;4.87;;;4.80;99.90;;;;;;5074047;28;20655;-45
2022/11/27 04:34:24;;;;;;;16.77;5.57;;;4.80;99.90;;;;;;5055916;28;20218;-45
2022/11/27 04:36:49;;;;;;;8.37;4.10;;;4.80;99.90;;;;;;5073849;28;20729;-46
2022/11/27 04:39:15;;;;;;;12.30;5.40;;;4.80;99.90;;;;;;5074168;28;20227;-44
2022/11/27 04:41:41;;;;;;;5.73;3.17;;;4.80;99.90;;;;;;5074072;28;20176;-43
2022/11/27 04:44:06;;;;;;;5.17;3.37;;;4.80;99.90;;;;;;5073852;28;20202;-45
2022/11/27 04:46:32;;;;;;;10.13;5.57;;;4.80;99.90;;;;;;5074143;28;20226;-45
2022/11/27 04:48:58;;;;;;;11.57;5.37;;;4.80;99.90;;;;;;5055673;28;20671;-44
2022/11/27 04:51:23;;;;;;;9.13;4.67;;;4.80;99.90;;;;;;5074065;28;20180;-45
2022/11/27 04:53:49;;;;;;;10.87;5.10;;;4.80;99.90;;;;;;5073858;28;20181;-45
2022/11/27 04:56:15;;;;;;;11.67;4.73;;;4.80;99.90;;;;;;5073741;28;20287;-46
2022/11/27 04:58:40;;;;;;;11.50;5.50;;;4.80;99.90;;;;;;5073537;28;20215;-45
2022/11/27 05:01:08;;;;;;;18.00;6.10;;;4.80;99.90;;;;;;5073515;28;20173;-43
2022/11/27 05:03:34;;;;;;;11.90;4.70;;;4.80;99.90;;;;;;5055535;28;20195;-45
2022/11/27 05:05:59;;;;;;;14.60;5.93;;;4.90;99.90;;;;;;5073793;28;20184;-45
2022/11/27 05:08:27;;;;;;;13.60;4.10;;;4.90;99.90;;;;;;5073322;28;20199;-45
2022/11/27 05:11:05;;;;;;;16.30;4.90;;;4.80;99.90;;;;;;5073698;28;20539;-45
2022/11/27 05:13:31;;;;;;;8.03;5.20;;;4.90;99.90;;;;;;5073473;28;20215;-44
2022/11/27 05:15:56;;;;;;;7.63;4.40;;;4.90;99.90;;;;;;5073231;28;20236;-45
2022/11/27 05:18:22;;;;;;;16.80;4.93;;;4.80;99.90;;;;;;5073276;28;20603;-44
2022/11/27 05:20:58;;;;;;;8.97;3.70;;;4.80;99.90;;;;;;5073331;28;20172;-45
2022/11/27 05:23:25;;;;;;;10.43;4.90;;;4.80;99.90;;;;;;5073223;28;20209;-45
2022/11/27 05:25:51;;;;;;;11.73;5.63;;;4.80;99.90;;;;;;5073606;28;20182;-45
2022/11/27 05:28:17;;;;;;;10.10;5.30;;;4.80;99.90;;;;;;5073498;28;20200;-45
2022/11/27 05:30:42;;;;;;;11.27;5.93;;;4.80;99.90;;;;;;5073172;28;20179;-46
2022/11/27 05:33:09;;;;;;;9.93;4.53;;;4.80;99.90;;;;;;5073176;28;20639;-47
2022/11/27 05:35:34;;;;;;;8.43;4.80;;;4.80;99.90;;;;;;5073090;28;20230;-46
2022/11/27 05:38:00;;;;;;;10.87;5.43;;;4.80;99.90;;;;;;5073356;28;20233;-44
2022/11/27 05:40:25;;;;;;;13.27;5.30;;;4.80;99.90;;;;;;5073094;28;20176;-45
2022/11/27 05:42:51;;;;;;;12.43;5.80;;;4.80;99.90;;;;;;5073092;28;20628;-44
2022/11/27 05:45:16;;;;;;;10.60;4.83;;;4.80;99.90;;;;;;5072988;28;20184;-45
2022/11/27 05:47:42;;;;;;;10.43;5.40;;;4.80;99.90;;;;;;5073445;28;20207;-44
2022/11/27 05:50:08;;;;;;;15.07;5.80;;;4.80;99.90;;;;;;5073280;28;20175;-43
2022/11/27 05:52:33;;;;;;;8.07;3.13;;;4.70;99.90;;;;;;5073165;28;20267;-44
2022/11/27 05:54:59;;;;;;;13.23;5.90;;;4.70;99.90;;;;;;5072872;28;20630;-44
2022/11/27 05:57:25;;;;;;;14.40;5.67;;;4.70;99.90;;;;;;5072847;28;20642;-44
2022/11/27 05:59:50;;;;;;;14.70;5.10;;;4.80;99.90;;;;;;5073091;28;20218;-45
2022/11/27 06:02:16;;;;;;;10.73;4.30;;;4.70;99.90;;;;;;5072886;28;20177;-46
2022/11/27 06:04:42;;;;;;;11.20;5.90;;;4.70;99.90;;;;;;5072857;28;20196;-44
2022/11/27 06:07:07;;;;;;;10.40;5.57;;;4.80;99.90;;;;;;5072983;28;20587;-45
2022/11/27 06:09:33;;;;;;;14.83;5.03;;;4.80;99.90;;;;;;5073917;28;20218;-46
2022/11/27 06:11:59;;;;;;;8.73;4.87;;;4.80;99.90;;;;;;5073078;28;20214;-43
2022/11/27 06:14:24;;;;;;;11.53;5.33;;;4.80;99.90;;;;;;5073020;28;20262;-46
2022/11/27 06:16:50;;;;;;;7.37;4.37;;;4.80;99.90;;;;;;5073045;28;20604;-44
2022/11/27 06:19:15;;;;;;;11.37;5.50;;;4.80;99.90;;;;;;5072684;28;20573;-44
2022/11/27 06:21:41;;;;;;;12.23;4.60;;;4.80;99.90;;;;;;5073036;28;20186;-43
2022/11/27 06:24:07;;;;;;;12.47;4.93;;;4.80;99.90;;;;;;5072931;28;20176;-43
2022/11/27 06:26:33;;;;;;;8.53;4.03;;;4.80;99.90;;;;;;5072572;28;20177;-46
2022/11/27 06:29:00;;;;;;;12.60;5.30;;;4.80;99.90;;;;;;5072832;28;20204;-45
2022/11/27 06:31:28;;;;;;;8.83;5.33;;;4.90;99.90;;;;;;5072508;28;20189;-45
2022/11/27 06:33:55;;;;;;;11.67;5.03;;;4.90;99.90;;;;;;5072766;28;20177;-44
2022/11/27 06:36:23;;;;;;;10.40;5.47;;;4.90;99.90;;;;;;5072793;28;20664;-43
2022/11/27 06:38:48;;;;;;;9.83;5.60;;;4.90;99.90;;;;;;5072476;28;20215;-45
2022/11/27 06:41:20;;;;;;;10.47;5.00;;;4.90;99.90;;;;;;5072820;28;20207;-44
2022/11/27 06:43:47;;;;;;;10.17;4.13;;;4.90;99.90;;;;;;5072482;28;20550;-44
2022/11/27 06:46:15;;;;;;;8.40;3.30;;;4.90;99.90;;;;;;5075705;28;20195;-44
2022/11/27 06:48:41;;;;;;;10.37;5.40;;;4.90;99.90;;;;;;5075977;28;20191;-44
2022/11/27 06:51:10;;;;;;;17.07;6.27;;;5.00;99.90;;;;;;5076030;28;20173;-46
2022/11/27 06:53:36;;;;;;;12.57;6.03;;;4.90;99.90;;;;;;5076130;28;20179;-45
2022/11/27 06:56:07;;;;;;;14.30;6.07;;;4.90;99.90;;;;;;5076165;28;20235;-45
2022/11/27 06:58:33;;;;;;;13.03;5.93;;;4.90;99.90;;;;;;5075800;28;20675;-45
2022/11/27 07:01:01;;;;;;;9.73;4.33;;;4.90;99.90;;;;;;5075935;28;20187;-45
2022/11/27 07:03:26;;;;;;;8.60;4.30;;;5.00;99.90;;;;;;5057706;28;20226;-45
2022/11/27 07:05:52;;;;;;;9.53;4.87;;;5.00;99.90;;;;;;5075717;28;20272;-45
2022/11/27 07:08:18;;;;;;;11.50;5.23;;;5.00;99.90;;;;;;5075863;28;20653;-46
2022/11/27 07:10:43;;;;;;;7.30;4.43;;;5.10;99.90;;;;;;5075566;28;20701;-45
2022/11/27 07:13:09;;;;;;;10.53;5.30;;;5.10;99.90;;;;;;5075555;28;20186;-45
2022/11/27 07:15:35;;;;;;;10.53;5.47;;;5.10;99.90;;;;;;5075837;28;20207;-45
2022/11/27 07:18:01;;;;;;;12.00;5.03;;;5.10;99.90;;;;;;5075691;28;20610;-46
2022/11/27 07:20:26;;;;;;;10.60;4.87;;;5.60;99.90;;;;;;5075432;28;20179;-45
2022/11/27 07:22:52;;;;;;;10.33;5.17;;;5.20;99.90;;;;;;5075414;28;20174;-45
2022/11/27 07:25:17;;;;;;;12.83;5.13;;;5.10;99.90;;;;;;5075477;28;20221;-45
2022/11/27 07:27:43;;;;;;;9.07;4.97;;;5.20;99.90;;;;;;5075167;28;20173;-45
2022/11/27 07:30:09;;;;;;;10.37;4.60;;;5.20;99.90;;;;;;5075274;28;20530;-45
2022/11/27 07:32:34;;;;;;;12.50;5.10;;;5.20;99.90;;;;;;5075517;28;20221;-45
2022/11/27 07:35:00;;;;;;;11.60;5.23;;;5.20;99.90;;;;;;5075135;28;20325;-44
2022/11/27 07:37:30;;;;;;;12.40;5.57;;;5.20;99.90;;;;;;5057282;28;20187;-44
2022/11/27 07:39:55;;;;;;;9.33;4.27;;;5.30;99.90;;;;;;5075356;28;20279;-45
2022/11/27 07:42:21;;;;;;;12.00;5.70;;;5.30;99.90;;;;;;5075674;28;20611;-45
2022/11/27 07:44:46;;;;;;;7.43;4.97;;;5.30;99.90;;;;;;5075224;28;20184;-44
2022/11/27 07:47:12;;;;;;;12.07;5.17;;;5.30;99.90;;;;;;5075411;28;20179;-46
2022/11/27 07:49:37;;;;;;;9.27;5.23;;;5.40;99.90;;;;;;5075103;28;20693;-45
2022/11/27 07:52:03;;;;;;;13.53;4.80;;;5.40;99.90;;;;;;5075160;28;20183;-44
2022/11/27 07:54:29;;;;;;;11.43;5.10;;;5.40;99.90;;;;;;5075030;28;20173;-45
2022/11/27 07:56:54;;;;;;;12.63;4.97;;;5.50;99.90;;;;;;5074816;28;20178;-44
2022/11/27 07:59:20;;;;;;;10.40;4.67;;;5.50;99.90;;;;;;5074870;28;20206;-44
2022/11/27 08:01:46;;;;;;;9.60;4.83;;;5.60;99.90;;;;;;5074802;28;20259;-45
2022/11/27 08:04:11;;;;;;;6.17;4.57;;;5.60;99.90;;;;;;5074540;28;20192;-44
2022/11/27 08:06:37;;;;;;;8.50;5.00;;;5.70;99.90;;;;;;5074456;28;20194;-43
2022/11/27 08:09:02;;;;;;;9.63;4.43;;;5.70;99.90;;;;;;5074376;28;20217;-44
2022/11/27 08:11:31;;;;;;;6.43;3.57;;;5.80;99.90;;;;;;5074499;28;20206;-44
2022/11/27 08:14:03;;;;;;;5.67;2.70;;;5.80;99.90;;;;;;5056334;28;20179;-43
2022/11/27 08:16:30;;;;;;;5.00;3.17;;;5.90;99.90;;;;;;5074449;28;20208;-45
2022/11/27 08:18:55;;;;;;;5.47;4.00;;;5.90;99.90;;;;;;5074915;28;20596;-46
2022/11/27 08:21:21;;;;;;;7.00;3.93;;;6.00;99.90;;;;;;5074544;28;20232;-45
2022/11/27 08:23:47;;;;;;;11.53;4.80;;;6.10;99.90;;;;;;5074284;28;20206;-45
2022/11/27 08:26:13;;;;;;;9.43;3.77;;;6.10;99.90;;;;;;5074704;28;20207;-46
2022/11/27 08:28:39;;;;;;;7.30;3.40;;;6.10;99.90;;;;;;5056373;28;20679;-45
2022/11/27 08:31:07;;;;;;;8.13;4.37;;;6.10;99.90;;;;;;5074729;28;20176;-45
2022/11/27 08:33:33;;;;;;;9.77;4.13;;;6.20;99.90;;;;;;5074168;28;20180;-44
2022/11/27 08:35:58;;;;;;;8.73;4.47;;;6.20;99.90;;;;;;5074051;28;20202;-45
2022/11/27 08:38:24;;;;;;;7.63;3.97;;;6.20;99.90;;;;;;5074178;28;20201;-46
2022/11/27 08:40:59;;;;;;;6.87;3.87;;;6.20;99.90;;;;;;5074528;28;20172;-44
2022/11/27 08:43:25;;;;;;;7.70;4.33;;;6.20;99.90;;;;;;5073967;28;20258;-45
2022/11/27 08:45:51;;;;;;;12.80;4.10;;;6.20;99.90;;;;;;5074249;28;20181;-46
2022/11/27 08:48:17;;;;;;;8.20;4.37;;;6.30;99.90;;;;;;5073916;28;20199;-46
2022/11/27 08:50:43;;;;;;;8.13;4.17;;;6.30;99.90;;;;;;5073893;28;20185;-44
2022/11/27 08:53:08;;;;;;;6.13;3.60;;;6.30;99.90;;;;;;5073992;28;20598;-44
2022/11/27 08:55:34;;;;;;;15.47;4.17;;;6.40;99.90;;;;;;5073799;28;20704;-45
2022/11/27 08:58:00;;;;;;;5.80;3.67;;;6.40;99.90;;;;;;5074247;28;20242;-44
2022/11/27 09:00:25;;;;;;;8.53;4.33;;;6.40;99.90;;;;;;5074220;28;20694;-45
2022/11/27 09:02:51;;;;;;;8.07;3.90;;;6.50;99.90;;;;;;5073517;28;20188;-45
2022/11/27 09:05:16;;;;;;;7.07;3.93;;;6.50;99.90;;;;;;5073946;28;20174;-45
2022/11/27 09:07:42;;;;;;;5.90;3.20;;;6.50;99.90;;;;;;5073015;28;20324;-45
2022/11/27 09:10:09;;;;;;;9.63;4.37;;;6.50;99.90;;;;;;5073689;28;20180;-45
2022/11/27 09:12:34;;;;;;;11.03;5.83;;;6.60;99.90;;;;;;5073960;28;20179;-45
2022/11/27 09:15:00;;;;;;;17.50;8.80;;;6.60;99.90;;;;;;5073479;28;20209;-46
2022/11/27 09:17:26;;;;;;;16.20;8.50;;;6.70;99.90;;;;;;5065105;28;20206;-46
2022/11/27 09:19:51;;;;;;;15.03;8.37;;;6.70;99.90;;;;;;5073396;28;20193;-45
2022/11/27 09:22:17;;;;;;;12.53;6.47;;;6.70;99.90;;;;;;5073428;28;20170;-46
2022/11/27 09:24:43;;;;;;;10.03;5.77;;;6.70;99.90;;;;;;5073515;28;20181;-46
2022/11/27 09:27:09;;;;;;;6.43;5.00;;;6.70;99.90;;;;;;5073672;28;20178;-45
2022/11/27 09:29:35;;;;;;;5.03;3.73;;;6.70;99.90;;;;;;5073624;28;20203;-45
2022/11/27 09:32:01;;;;;;;6.33;4.70;;;6.70;99.90;;;;;;5073201;28;20267;-46
2022/11/27 09:34:26;;;;;;;8.83;5.00;;;6.70;99.90;;;;;;5073613;28;20208;-45
2022/11/27 09:36:52;;;;;;;12.70;5.23;;;6.70;99.90;;;;;;5073260;28;20183;-45
2022/11/27 09:39:19;;;;;;;16.60;8.63;;;6.70;99.90;;;;;;5073065;28;20251;-46
2022/11/27 09:42:03;;;;;;;12.47;7.57;;;6.80;99.90;;;;;;5073298;28;20729;-46
2022/11/27 09:44:44;;;;;;;13.97;6.23;;;6.80;99.90;;;;;;5073077;28;20205;-45
2022/11/27 09:47:14;;;;;;;17.60;7.73;;;6.80;99.90;;;;;;5073497;28;20168;-45
2022/11/27 09:49:49;;;;;;;21.97;7.20;;;6.90;99.90;;;;;;5073240;28;20197;-46
2022/11/27 09:52:40;;;;;;;13.20;4.97;;;6.90;99.90;;;;;;5073299;28;20155;-42
2022/11/27 09:55:31;;;;;;;12.40;5.17;;;6.90;99.90;;;;;;5073354;28;20223;-42
2022/11/27 09:58:17;;;;;;;6.13;3.50;;;6.90;99.90;;;;;;5072899;28;20174;-43
2022/11/27 10:00:44;;;;;;;10.13;3.27;;;7.00;99.90;;;;;;5073255;28;20252;-45
2022/11/27 10:03:14;;;;;;;5.70;3.27;;;7.00;99.90;;;;;;5073076;28;20195;-45
2022/11/27 10:05:58;;;;;;;9.60;3.67;;;7.00;99.90;;;;;;5072883;28;20204;-42
2022/11/27 10:08:50;;;;;;;7.63;3.83;;;6.90;99.90;;;;;;5072844;28;20670;-43
2022/11/27 10:11:29;;;;;;;8.50;3.57;;;7.00;99.90;;;;;;5073142;28;20528;-46
2022/11/27 10:14:10;;;;;;;9.27;3.37;;;7.00;99.90;;;;;;5072973;28;20193;-43
2022/11/27 10:16:51;;;;;;;12.93;3.90;;;7.00;99.90;;;;;;5072931;28;20205;-43
2022/11/27 10:19:39;;;;;;;6.63;3.10;;;7.00;99.90;;;;;;5073940;28;20517;-46
2022/11/27 10:22:15;;;;;;;7.80;3.40;;;7.10;99.90;;;;;;5076107;28;20273;-41
2022/11/27 10:24:44;;;;;;;5.97;3.47;;;7.10;99.90;;;;;;5076761;28;20274;-43
2022/11/27 10:27:36;;;;;;;7.77;3.90;;;7.20;99.90;;;;;;5076813;28;20182;-43
2022/11/27 10:30:12;;;;;;;7.57;3.50;;;7.20;99.90;;;;;;5072651;28;20260;-46
2022/11/27 10:32:38;;;;;;;5.70;3.23;;;7.20;99.90;;;;;;5076822;28;20208;-44
2022/11/27 10:35:12;;;;;;;5.40;3.40;;;7.20;99.90;;;;;;5076923;28;20232;-45
2022/11/27 10:37:47;;;;;;;7.87;3.17;;;7.30;99.90;;;;;;5076660;28;20159;-45
2022/11/27 10:40:12;;;;;;;7.27;3.80;;;7.30;99.90;;;;;;5077253;28;20170;-45
2022/11/27 10:42:53;;;;;;;5.83;3.40;;;7.40;99.90;;;;;;5077239;28;20518;-44
2022/11/27 10:45:30;;;;;;;4.97;3.13;;;7.40;99.90;;;;;;5077482;28;20179;-44
2022/11/27 10:47:56;;;;;;;4.77;2.93;;;7.50;99.90;;;;;;5058262;28;20526;-43
2022/11/27 10:50:22;;;;;;;6.47;2.90;;;7.50;99.90;;;;;;5058306;28;20553;-46
2022/11/27 10:53:01;;;;;;;5.97;3.67;;;7.50;99.90;;;;;;5076676;28;20631;-44
2022/11/27 10:55:52;;;;;;;4.73;3.13;;;7.60;99.90;;;;;;5076588;28;20224;-43
2022/11/27 10:58:38;;;;;;;5.30;2.50;;;7.70;99.90;;;;;;5075898;28;20607;-43
2022/11/27 11:01:16;;;;;;;6.57;3.03;;;7.70;99.90;;;;;;5075832;28;20623;-44
2022/11/27 11:03:42;;;;;;;6.30;2.67;;;7.70;99.90;;;;;;5076261;28;20572;-43
2022/11/27 11:06:18;;;;;;;5.37;2.60;;;7.80;99.90;;;;;;5076015;28;20277;-43
2022/11/27 11:08:45;;;;;;;5.30;2.37;;;7.90;99.90;;;;;;5075857;28;20206;-44
2022/11/27 11:11:10;;;;;;;8.97;5.23;;;7.90;99.90;;;;;;5075703;28;20187;-46
2022/11/27 11:13:39;;;;;;;9.10;4.77;;;7.90;99.90;;;;;;5075869;28;20241;-47
2022/11/27 11:16:06;;;;;;;8.40;5.13;;;8.00;99.90;;;;;;5076050;28;20679;-45
2022/11/27 11:18:40;;;;;;;7.53;4.40;;;8.00;99.90;;;;;;5057537;28;20214;-46
2022/11/27 11:21:06;;;;;;;3.93;2.63;;;8.10;99.90;;;;;;5075769;28;20182;-45
2022/11/27 11:23:33;;;;;;;7.30;3.70;;;8.10;99.90;;;;;;5075403;28;20180;-45
2022/11/27 11:26:03;;;;;;;3.43;2.40;;;8.10;99.90;;;;;;5075496;28;20179;-43
2022/11/27 11:28:30;;;;;;;5.53;3.40;;;8.10;99.90;;;;;;5075520;28;20206;-44
2022/11/27 11:31:04;;;;;;;6.47;3.23;;;8.20;99.90;;;;;;5074809;28;20207;-43
2022/11/27 11:33:32;;;;;;;5.83;3.43;;;8.20;99.90;;;;;;5075684;28;20171;-42
2022/11/27 11:36:07;;;;;;;14.83;5.60;;;8.20;99.90;;;;;;5075481;28;20239;-46
2022/11/27 11:38:33;;;;;;;9.13;3.63;;;8.30;99.90;;;;;;5075523;28;20224;-45
2022/11/27 11:41:04;;;;;;;3.40;2.07;;;8.30;99.90;;;;;;5075784;28;20261;-45
2022/11/27 11:43:35;;;;;;;3.93;2.90;;;8.40;99.90;;;;;;5075278;28;20494;-44
2022/11/27 11:46:16;;;;;;;6.53;3.50;;;8.50;99.90;;;;;;5075453;28;20182;-44
2022/11/27 11:48:56;;;;;;;16.17;3.70;;;8.50;99.90;;;;;;5075691;28;20198;-44
2022/11/27 11:51:35;;;;;;;6.73;3.63;;;8.50;99.90;;;;;;5074965;28;20179;-45
2022/11/27 11:54:15;;;;;;;8.93;4.10;;;8.60;99.90;;;;;;5074982;28;20168;-44
2022/11/27 11:56:43;;;;;;;9.83;3.77;;;9.40;99.90;;;;;;5074827;28;20194;-46
2022/11/27 11:59:37;;;;;;;11.20;4.00;;;8.70;99.90;;;;;;5074669;28;20199;-45
2022/11/27 12:02:20;;;;;;;6.97;3.70;;;8.70;99.90;;;;;;5074822;28;20259;-45
2022/11/27 12:05:13;;;;;;;8.30;4.23;;;8.70;99.90;;;;;;5074643;28;20202;-45
2022/11/27 12:08:12;;;;;;;8.67;4.70;;;8.80;99.90;;;;;;5074841;28;20171;-46
2022/11/27 12:11:04;;;;;;;8.80;4.40;;;8.80;99.90;;;;;;5074853;28;20223;-45
2022/11/27 12:14:01;;;;;;;4.57;2.73;;;8.90;99.90;;;;;;5075255;28;20512;-45
2022/11/27 12:17:19;;;;;;;3.80;2.70;;;8.90;99.90;;;;;;5074923;28;20257;-44
2022/11/27 12:20:13;;;;;;;5.30;2.80;;;8.90;99.90;;;;;;4993129;28;20211;-45
2022/11/27 12:23:16;;;;;;;3.90;1.83;;;8.90;99.90;;;;;;4993127;28;20193;-45
2022/11/27 12:25:47;;;;;;;4.13;2.87;;;8.90;99.90;;;;;;5067514;28;20202;-45
2022/11/27 12:28:43;;;;;;;3.80;2.77;;;8.90;99.90;;;;;;5074304;28;20214;-44
2022/11/27 12:31:27;;;;;;;5.23;2.50;;;8.90;99.90;;;;;;5074451;28;20521;-45
2022/11/27 12:34:14;;;;;;;9.17;3.23;;;8.90;99.90;;;;;;5074333;28;20203;-45
2022/11/27 12:36:53;;;;;;;5.37;2.50;;;8.90;99.90;;;;;;5074231;28;20277;-45
2022/11/27 12:39:39;;;;;;;5.20;2.50;;;8.90;99.90;;;;;;5074165;28;20318;-45
2022/11/27 12:42:28;;;;;;;5.27;2.40;;;8.90;99.90;;;;;;5073700;28;20171;-45
2022/11/27 12:45:04;;;;;;;3.50;2.50;;;8.90;99.90;;;;;;5074487;28;20164;-46
2022/11/27 12:47:40;;;;;;;5.23;2.70;;;8.80;99.90;;;;;;5074340;28;20176;-45
2022/11/27 12:50:42;;;;;;;7.47;2.73;;;8.90;99.90;;;;;;5074291;28;20175;-46
2022/11/27 12:53:22;;;;;;;9.70;2.60;;;8.80;99.90;;;;;;5074126;28;20186;-44
2022/11/27 12:56:23;;;;;;;4.27;3.27;;;8.80;99.90;;;;;;5073989;28;20203;-47
2022/11/27 12:59:10;;;;;;;6.00;2.83;;;8.80;99.90;;;;;;5069880;28;20208;-45
2022/11/27 13:01:41;;;;;;;2.50;2.00;;;8.90;99.90;;;;;;5073696;28;20218;-44
2022/11/27 13:04:17;;;;;;;3.37;2.33;;;8.90;99.90;;;;;;5055678;28;20238;-46
2022/11/27 13:07:05;;;;;;;4.80;2.70;;;8.90;99.90;;;;;;5073634;28;20655;-45
2022/11/27 13:09:43;;;;;;;4.90;2.57;;;8.90;99.90;;;;;;5073723;28;20212;-44
2022/11/27 13:12:15;;;;;;;4.90;2.37;;;8.90;99.90;;;;;;5073842;28;20674;-47
2022/11/27 13:14:45;;;;;;;5.23;2.67;;;8.80;99.90;;;;;;5077756;28;20205;-49